< < Back
Terminal Aerodrome Forecast


Current Version              Previous Versions:   1  2  3  4  5  6  7  8  9  

Terminal Aerodrome Forecast

603
FTUS42 KMLB 272105 AAA
TAFMCO
TAF AMD
KMCO 272105Z 2721/2818 07011KT P6SM VCSH SCT040 BKN070
     FM280200 03003KT P6SM FEW020
     FM281500 05005KT P6SM SCT040=

Latest METAR

953
SAUS70 KWBC 280800
MTRMCO
METAR KMCO 280753Z 03006KT 10SM FEW100 22/19 A2998 RMK AO2 SLP150
T02170194


USA.gov is the U.S. government's official web portal to all federal, state and local government web resources and services.